sensor_id;sensor_type;location;lat;lon;timestamp;pressure;altitude;pressure_sealevel;temperature;humidity
79617;BME280;69097;52.132;5.422;2024-01-06T00:00:08;100556.69;;;5.54;100.00
79617;BME280;69097;52.132;5.422;2024-01-06T00:02:34;100565.03;;;5.54;100.00
79617;BME280;69097;52.132;5.422;2024-01-06T00:05:01;100565.03;;;5.54;99.90
79617;BME280;69097;52.132;5.422;2024-01-06T00:07:27;100567.41;;;5.55;99.94
79617;BME280;69097;52.132;5.422;2024-01-06T00:09:54;100576.16;;;5.54;99.86
79617;BME280;69097;52.132;5.422;2024-01-06T00:12:20;100573.78;;;5.52;99.58
79617;BME280;69097;52.132;5.422;2024-01-06T00:14:47;100580.91;;;5.53;99.63
79617;BME280;69097;52.132;5.422;2024-01-06T00:17:16;100581.72;;;5.54;99.55
79617;BME280;69097;52.132;5.422;2024-01-06T00:19:42;100600.41;;;5.50;99.28
79617;BME280;69097;52.132;5.422;2024-01-06T00:22:09;100590.06;;;5.50;99.55
79617;BME280;69097;52.132;5.422;2024-01-06T00:24:35;100597.63;;;5.46;99.18
79617;BME280;69097;52.132;5.422;2024-01-06T00:27:02;100600.06;;;5.44;98.83
79617;BME280;69097;52.132;5.422;2024-01-06T00:29:31;100607.63;;;5.37;98.66
79617;BME280;69097;52.132;5.422;2024-01-06T00:31:58;100609.59;;;5.40;99.22
79617;BME280;69097;52.132;5.422;2024-01-06T00:34:24;100608.00;;;5.39;98.63
79617;BME280;69097;52.132;5.422;2024-01-06T00:36:51;100605.66;;;5.34;98.15
79617;BME280;69097;52.132;5.422;2024-01-06T00:39:17;100612.44;;;5.26;97.97
79617;BME280;69097;52.132;5.422;2024-01-06T00:41:44;100612.81;;;5.28;98.11
79617;BME280;69097;52.132;5.422;2024-01-06T00:44:11;100606.88;;;5.26;98.60
79617;BME280;69097;52.132;5.422;2024-01-06T00:46:39;100620.38;;;5.27;97.88
79617;BME280;69097;52.132;5.422;2024-01-06T00:49:05;100618.00;;;5.26;98.46
79617;BME280;69097;52.132;5.422;2024-01-06T00:51:33;100624.75;;;5.25;98.52
79617;BME280;69097;52.132;5.422;2024-01-06T00:54:03;100624.34;;;5.23;98.27
79617;BME280;69097;52.132;5.422;2024-01-06T00:56:29;100616.00;;;5.23;98.89
79617;BME280;69097;52.132;5.422;2024-01-06T00:58:56;100621.19;;;5.21;98.69
79617;BME280;69097;52.132;5.422;2024-01-06T01:01:22;100621.19;;;5.21;99.19
79617;BME280;69097;52.132;5.422;2024-01-06T01:03:49;100618.03;;;5.22;98.92
79617;BME280;69097;52.132;5.422;2024-01-06T01:06:16;100623.97;;;5.21;99.06
79617;BME280;69097;52.132;5.422;2024-01-06T01:08:43;100631.13;;;5.22;99.27
79617;BME280;69097;52.132;5.422;2024-01-06T01:11:09;100638.25;;;5.23;99.49
79617;BME280;69097;52.132;5.422;2024-01-06T01:13:35;100641.44;;;5.25;99.61
79617;BME280;69097;52.132;5.422;2024-01-06T01:16:02;100644.22;;;5.25;99.59
79617;BME280;69097;52.132;5.422;2024-01-06T01:18:29;100647.00;;;5.18;99.48
79617;BME280;69097;52.132;5.422;2024-01-06T01:20:56;100654.97;;;5.16;99.73
79617;BME280;69097;52.132;5.422;2024-01-06T01:23:23;100662.53;;;5.12;99.53
79617;BME280;69097;52.132;5.422;2024-01-06T01:25:49;100656.16;;;5.07;99.11
79617;BME280;69097;52.132;5.422;2024-01-06T01:28:15;100665.31;;;5.04;98.77
79617;BME280;69097;52.132;5.422;2024-01-06T01:30:42;100666.94;;;5.02;99.03
79617;BME280;69097;52.132;5.422;2024-01-06T01:33:09;100668.09;;;5.04;98.95
79617;BME280;69097;52.132;5.422;2024-01-06T01:35:35;100683.59;;;5.02;98.98
79617;BME280;69097;52.132;5.422;2024-01-06T01:38:02;100672.06;;;5.03;98.56
79617;BME280;69097;52.132;5.422;2024-01-06T01:40:29;100682.81;;;4.98;98.44
79617;BME280;69097;52.132;5.422;2024-01-06T01:42:55;100687.19;;;4.95;98.23
79617;BME280;69097;52.132;5.422;2024-01-06T01:45:24;100690.75;;;4.96;98.38
79617;BME280;69097;52.132;5.422;2024-01-06T01:47:51;100701.09;;;4.95;98.18
79617;BME280;69097;52.132;5.422;2024-01-06T01:50:17;100705.84;;;4.91;98.27
79617;BME280;69097;52.132;5.422;2024-01-06T01:52:46;100696.69;;;4.91;98.86
79617;BME280;69097;52.132;5.422;2024-01-06T01:55:13;100705.44;;;4.89;98.56
79617;BME280;69097;52.132;5.422;2024-01-06T01:57:40;100709.03;;;4.86;98.02
79617;BME280;69097;52.132;5.422;2024-01-06T02:00:08;100710.22;;;4.82;97.71
79617;BME280;69097;52.132;5.422;2024-01-06T02:02:35;100710.22;;;4.82;98.13
79617;BME280;69097;52.132;5.422;2024-01-06T02:05:01;100714.19;;;4.81;98.10
79617;BME280;69097;52.132;5.422;2024-01-06T02:07:28;100720.53;;;4.81;98.27
79617;BME280;69097;52.132;5.422;2024-01-06T02:09:54;100715.38;;;4.83;98.35
79617;BME280;69097;52.132;5.422;2024-01-06T02:12:21;100721.31;;;4.85;97.65
79617;BME280;69097;52.132;5.422;2024-01-06T02:14:47;100724.09;;;4.85;97.86
79617;BME280;69097;52.132;5.422;2024-01-06T02:17:14;100726.50;;;4.83;97.33
79617;BME280;69097;52.132;5.422;2024-01-06T02:19:40;100723.31;;;4.85;97.54
79617;BME280;69097;52.132;5.422;2024-01-06T02:22:07;100729.66;;;4.85;97.54
79617;BME280;69097;52.132;5.422;2024-01-06T02:24:33;100730.84;;;4.84;97.50
79617;BME280;69097;52.132;5.422;2024-01-06T02:27:00;100731.25;;;4.86;97.13
79617;BME280;69097;52.132;5.422;2024-01-06T02:29:26;100732.06;;;4.87;97.82
79617;BME280;69097;52.132;5.422;2024-01-06T02:31:53;100732.81;;;4.84;97.63
79617;BME280;69097;52.132;5.422;2024-01-06T02:34:20;100730.44;;;4.86;98.15
79617;BME280;69097;52.132;5.422;2024-01-06T02:36:46;100741.97;;;4.84;97.88
79617;BME280;69097;52.132;5.422;2024-01-06T02:39:13;100749.09;;;4.85;98.04
79617;BME280;69097;52.132;5.422;2024-01-06T02:41:40;100751.88;;;4.85;98.06
79617;BME280;69097;52.132;5.422;2024-01-06T02:44:06;100759.81;;;4.90;97.97
79617;BME280;69097;52.132;5.422;2024-01-06T02:46:39;100760.63;;;4.91;98.11
79617;BME280;69097;52.132;5.422;2024-01-06T02:49:05;100765.38;;;4.90;97.58
79617;BME280;69097;52.132;5.422;2024-01-06T02:51:32;100770.56;;;4.88;97.82
79617;BME280;69097;52.132;5.422;2024-01-06T02:53:58;100766.56;;;4.86;98.03
79617;BME280;69097;52.132;5.422;2024-01-06T02:56:25;100770.16;;;4.83;98.09
79617;BME280;69097;52.132;5.422;2024-01-06T02:58:51;100772.53;;;4.81;98.43
79617;BME280;69097;52.132;5.422;2024-01-06T03:01:18;100768.56;;;4.78;98.17
79617;BME280;69097;52.132;5.422;2024-01-06T03:03:44;100772.13;;;4.75;98.35
79617;BME280;69097;52.132;5.422;2024-01-06T03:06:11;100774.91;;;4.72;98.57
79617;BME280;69097;52.132;5.422;2024-01-06T03:08:37;100772.50;;;4.70;98.26
79617;BME280;69097;52.132;5.422;2024-01-06T03:11:04;100775.69;;;4.69;98.36
79617;BME280;69097;52.132;5.422;2024-01-06T03:13:32;100782.44;;;4.68;98.04
79617;BME280;69097;52.132;5.422;2024-01-06T03:16:03;100782.03;;;4.69;98.62
79617;BME280;69097;52.132;5.422;2024-01-06T03:18:29;100788.41;;;4.70;97.95
79617;BME280;69097;52.132;5.422;2024-01-06T03:20:56;100792.34;;;4.69;97.74
79617;BME280;69097;52.132;5.422;2024-01-06T03:23:22;100796.34;;;4.71;97.96
79617;BME280;69097;52.132;5.422;2024-01-06T03:25:49;100798.72;;;4.73;98.04
79617;BME280;69097;52.132;5.422;2024-01-06T03:28:15;100799.91;;;4.72;97.67
79617;BME280;69097;52.132;5.422;2024-01-06T03:30:42;100799.50;;;4.70;97.38
79617;BME280;69097;52.132;5.422;2024-01-06T03:33:08;100807.44;;;4.71;97.51
79617;BME280;69097;52.132;5.422;2024-01-06T03:35:35;100817.75;;;4.67;97.98
79617;BME280;69097;52.132;5.422;2024-01-06T03:38:01;100814.97;;;4.67;97.47
79617;BME280;69097;52.132;5.422;2024-01-06T03:40:29;100820.13;;;4.65;98.01
79617;BME280;69097;52.132;5.422;2024-01-06T03:42:55;100832.44;;;4.64;97.75
79617;BME280;69097;52.132;5.422;2024-01-06T03:45:22;100828.06;;;4.67;97.32
79617;BME280;69097;52.132;5.422;2024-01-06T03:47:48;100840.75;;;4.64;97.96
79617;BME280;69097;52.132;5.422;2024-01-06T03:50:15;100844.75;;;4.63;97.77
79617;BME280;69097;52.132;5.422;2024-01-06T03:52:42;100840.75;;;4.61;98.18
79617;BME280;69097;52.132;5.422;2024-01-06T03:55:09;100847.91;;;4.58;97.34
79617;BME280;69097;52.132;5.422;2024-01-06T03:57:35;100839.16;;;4.56;97.58
79617;BME280;69097;52.132;5.422;2024-01-06T04:00:03;100847.50;;;4.56;97.48
79617;BME280;69097;52.132;5.422;2024-01-06T04:02:30;100850.28;;;4.56;97.77
79617;BME280;69097;52.132;5.422;2024-01-06T04:04:56;100854.22;;;4.55;97.39
79617;BME280;69097;52.132;5.422;2024-01-06T04:07:23;100861.78;;;4.55;97.72
79617;BME280;69097;52.132;5.422;2024-01-06T04:09:49;100868.53;;;4.57;97.36
79617;BME280;69097;52.132;5.422;2024-01-06T04:12:16;100873.69;;;4.59;97.48
79617;BME280;69097;52.132;5.422;2024-01-06T04:14:43;100865.72;;;4.54;97.74
79617;BME280;69097;52.132;5.422;2024-01-06T04:17:09;100868.91;;;4.56;97.95
79617;BME280;69097;52.132;5.422;2024-01-06T04:19:36;100865.72;;;4.54;97.99
79617;BME280;69097;52.132;5.422;2024-01-06T04:22:02;100872.09;;;4.54;98.40
79617;BME280;69097;52.132;5.422;2024-01-06T04:24:29;100867.34;;;4.55;98.18
79617;BME280;69097;52.132;5.422;2024-01-06T04:26:56;100870.13;;;4.55;97.68
79617;BME280;69097;52.132;5.422;2024-01-06T04:29:22;100872.84;;;4.48;97.62
79617;BME280;69097;52.132;5.422;2024-01-06T04:31:49;100873.25;;;4.43;96.99
79617;BME280;69097;52.132;5.422;2024-01-06T04:34:16;100878.81;;;4.46;97.86
79617;BME280;69097;52.132;5.422;2024-01-06T04:36:42;100884.34;;;4.43;97.15
79617;BME280;69097;52.132;5.422;2024-01-06T04:39:09;100874.81;;;4.40;97.12
79617;BME280;69097;52.132;5.422;2024-01-06T04:41:36;100883.53;;;4.39;96.83
79617;BME280;69097;52.132;5.422;2024-01-06T04:44:02;100883.53;;;4.39;97.16
79617;BME280;69097;52.132;5.422;2024-01-06T04:46:29;100878.38;;;4.41;97.45
79617;BME280;69097;52.132;5.422;2024-01-06T04:48:57;100887.53;;;4.41;97.45
79617;BME280;69097;52.132;5.422;2024-01-06T04:51:23;100887.09;;;4.36;97.07
79617;BME280;69097;52.132;5.422;2024-01-06T04:53:50;100894.22;;;4.30;97.01
79617;BME280;69097;52.132;5.422;2024-01-06T04:56:17;100895.78;;;4.27;96.89
79617;BME280;69097;52.132;5.422;2024-01-06T04:58:43;100894.56;;;4.28;97.17
79617;BME280;69097;52.132;5.422;2024-01-06T05:01:10;100898.53;;;4.24;96.74
79617;BME280;69097;52.132;5.422;2024-01-06T05:03:37;100903.66;;;4.22;97.56
79617;BME280;69097;52.132;5.422;2024-01-06T05:06:04;100907.25;;;4.22;96.70
79617;BME280;69097;52.132;5.422;2024-01-06T05:08:30;100910.41;;;4.17;96.75
79617;BME280;69097;52.132;5.422;2024-01-06T05:10:57;100908.00;;;4.12;95.93
79617;BME280;69097;52.132;5.422;2024-01-06T05:13:24;100919.91;;;4.13;96.54
79617;BME280;69097;52.132;5.422;2024-01-06T05:15:50;100920.69;;;4.17;96.81
79617;BME280;69097;52.132;5.422;2024-01-06T05:18:17;100915.53;;;4.15;96.96
79617;BME280;69097;52.132;5.422;2024-01-06T05:20:43;100920.31;;;4.18;97.11
79617;BME280;69097;52.132;5.422;2024-01-06T05:23:10;100925.50;;;4.23;96.95
79617;BME280;69097;52.132;5.422;2024-01-06T05:25:37;100934.22;;;4.25;97.13
79617;BME280;69097;52.132;5.422;2024-01-06T05:28:03;100935.03;;;4.26;97.31
79617;BME280;69097;52.132;5.422;2024-01-06T05:30:30;100942.16;;;4.27;96.68
79617;BME280;69097;52.132;5.422;2024-01-06T05:32:56;100945.31;;;4.22;96.95
79617;BME280;69097;52.132;5.422;2024-01-06T05:35:23;100944.91;;;4.20;96.52
79617;BME280;69097;52.132;5.422;2024-01-06T05:37:50;100936.94;;;4.15;96.76
79617;BME280;69097;52.132;5.422;2024-01-06T05:40:17;100948.81;;;4.12;97.29
79617;BME280;69097;52.132;5.422;2024-01-06T05:42:43;100953.19;;;4.13;96.45
79617;BME280;69097;52.132;5.422;2024-01-06T05:45:11;100955.56;;;4.11;96.66
79617;BME280;69097;52.132;5.422;2024-01-06T05:47:39;100952.78;;;4.11;97.38
79617;BME280;69097;52.132;5.422;2024-01-06T05:50:06;100955.59;;;4.14;97.37
79617;BME280;69097;52.132;5.422;2024-01-06T05:52:36;100966.66;;;4.11;96.82
79617;BME280;69097;52.132;5.422;2024-01-06T05:55:04;100964.25;;;4.06;97.16
79617;BME280;69097;52.132;5.422;2024-01-06T05:57:30;100961.44;;;4.02;96.60
79617;BME280;69097;52.132;5.422;2024-01-06T05:59:57;100966.59;;;4.00;97.16
79617;BME280;69097;52.132;5.422;2024-01-06T06:02:23;100969.75;;;3.99;96.34
79617;BME280;69097;52.132;5.422;2024-01-06T06:04:50;100970.13;;;3.97;97.45
79617;BME280;69097;52.132;5.422;2024-01-06T06:07:16;100980.03;;;3.98;97.29
79617;BME280;69097;52.132;5.422;2024-01-06T06:09:43;100980.44;;;3.97;96.65
79617;BME280;69097;52.132;5.422;2024-01-06T06:12:10;100985.97;;;3.97;97.31
79617;BME280;69097;52.132;5.422;2024-01-06T06:14:36;100991.13;;;3.95;96.54
79617;BME280;69097;52.132;5.422;2024-01-06T06:17:03;101005.38;;;3.93;97.37
79617;BME280;69097;52.132;5.422;2024-01-06T06:19:29;100998.59;;;3.87;97.41
79617;BME280;69097;52.132;5.422;2024-01-06T06:21:56;101008.47;;;3.85;97.55
79617;BME280;69097;52.132;5.422;2024-01-06T06:24:23;101004.53;;;3.86;97.66
79617;BME280;69097;52.132;5.422;2024-01-06T06:26:49;101015.22;;;3.84;97.57
79617;BME280;69097;52.132;5.422;2024-01-06T06:29:16;101014.75;;;3.78;97.55
79617;BME280;69097;52.132;5.422;2024-01-06T06:31:42;101026.28;;;3.80;97.35
79617;BME280;69097;52.132;5.422;2024-01-06T06:34:13;101021.13;;;3.78;97.29
79617;BME280;69097;52.132;5.422;2024-01-06T06:36:40;101032.19;;;3.75;97.77
79617;BME280;69097;52.132;5.422;2024-01-06T06:39:06;101036.97;;;3.78;97.68
79617;BME280;69097;52.132;5.422;2024-01-06T06:41:33;101041.69;;;3.74;97.73
79617;BME280;69097;52.132;5.422;2024-01-06T06:44:00;101035.34;;;3.73;97.16
79617;BME280;69097;52.132;5.422;2024-01-06T06:46:26;101051.59;;;3.75;97.66
79617;BME280;69097;52.132;5.422;2024-01-06T06:48:53;101055.97;;;3.76;97.84
79617;BME280;69097;52.132;5.422;2024-01-06T06:51:19;101046.47;;;3.77;98.08
79617;BME280;69097;52.132;5.422;2024-01-06T06:53:51;101056.75;;;3.76;97.46
79617;BME280;69097;52.132;5.422;2024-01-06T06:56:17;101057.56;;;3.77;98.22
79617;BME280;69097;52.132;5.422;2024-01-06T06:58:44;101070.66;;;3.80;97.84
79617;BME280;69097;52.132;5.422;2024-01-06T07:01:10;101063.91;;;3.78;97.73
79617;BME280;69097;52.132;5.422;2024-01-06T07:03:37;101076.22;;;3.80;98.05
79617;BME280;69097;52.132;5.422;2024-01-06T07:06:04;101076.22;;;3.80;97.76
79617;BME280;69097;52.132;5.422;2024-01-06T07:08:30;101090.09;;;3.80;97.37
79617;BME280;69097;52.132;5.422;2024-01-06T07:10:57;101089.69;;;3.82;98.10
79617;BME280;69097;52.132;5.422;2024-01-06T07:13:23;101096.41;;;3.77;97.24
79617;BME280;69097;52.132;5.422;2024-01-06T07:15:50;101099.59;;;3.79;97.68
79617;BME280;69097;52.132;5.422;2024-01-06T07:18:17;101104.34;;;3.78;97.01
79617;BME280;69097;52.132;5.422;2024-01-06T07:20:49;101108.66;;;3.76;96.60
79617;BME280;69097;52.132;5.422;2024-01-06T07:23:16;101116.25;;;3.79;96.61
79617;BME280;69097;52.132;5.422;2024-01-06T07:25:42;101116.63;;;3.78;96.30
79617;BME280;69097;52.132;5.422;2024-01-06T07:28:09;101112.19;;;3.73;95.67
79617;BME280;69097;52.132;5.422;2024-01-06T07:30:35;101115.34;;;3.71;95.75
79617;BME280;69097;52.132;5.422;2024-01-06T07:33:02;101119.38;;;3.74;96.28
79617;BME280;69097;52.132;5.422;2024-01-06T07:35:29;101126.03;;;3.69;96.05
79617;BME280;69097;52.132;5.422;2024-01-06T07:37:55;101124.06;;;3.70;96.47
79617;BME280;69097;52.132;5.422;2024-01-06T07:40:22;101117.28;;;3.67;95.65
79617;BME280;69097;52.132;5.422;2024-01-06T07:42:49;101129.19;;;3.68;95.95
79617;BME280;69097;52.132;5.422;2024-01-06T07:45:18;101137.50;;;3.68;95.54
79617;BME280;69097;52.132;5.422;2024-01-06T07:47:44;101140.72;;;3.70;95.45
79617;BME280;69097;52.132;5.422;2024-01-06T07:50:11;101154.56;;;3.70;95.84
79617;BME280;69097;52.132;5.422;2024-01-06T07:52:37;101153.38;;;3.71;95.97
79617;BME280;69097;52.132;5.422;2024-01-06T07:55:04;101161.31;;;3.72;95.61
79617;BME280;69097;52.132;5.422;2024-01-06T07:57:30;101164.09;;;3.72;95.31
79617;BME280;69097;52.132;5.422;2024-01-06T07:59:57;101157.44;;;3.77;95.49
79617;BME280;69097;52.132;5.422;2024-01-06T08:02:26;101163.38;;;3.75;95.28
79617;BME280;69097;52.132;5.422;2024-01-06T08:04:52;101169.66;;;3.72;95.63
79617;BME280;69097;52.132;5.422;2024-01-06T08:07:20;101169.28;;;3.74;95.08
79617;BME280;69097;52.132;5.422;2024-01-06T08:09:46;101173.19;;;3.69;95.04
79617;BME280;69097;52.132;5.422;2024-01-06T08:12:15;101179.91;;;3.68;95.24
79617;BME280;69097;52.132;5.422;2024-01-06T08:14:41;101182.69;;;3.68;95.22
79617;BME280;69097;52.132;5.422;2024-01-06T08:17:08;101191.81;;;3.69;94.60
79617;BME280;69097;52.132;5.422;2024-01-06T08:19:34;101191.81;;;3.69;94.42
79617;BME280;69097;52.132;5.422;2024-01-06T08:22:02;101191.50;;;3.74;95.21
79617;BME280;69097;52.132;5.422;2024-01-06T08:24:28;101198.25;;;3.76;95.31
79617;BME280;69097;52.132;5.422;2024-01-06T08:26:55;101202.19;;;3.75;94.45
79617;BME280;69097;52.132;5.422;2024-01-06T08:29:21;101200.63;;;3.78;95.38
79617;BME280;69097;52.132;5.422;2024-01-06T08:31:48;101201.44;;;3.78;94.97
79617;BME280;69097;52.132;5.422;2024-01-06T08:34:16;101210.56;;;3.79;94.07
79617;BME280;69097;52.132;5.422;2024-01-06T08:36:44;101206.19;;;3.78;94.11
79617;BME280;69097;52.132;5.422;2024-01-06T08:39:11;101203.78;;;3.76;93.92
79617;BME280;69097;52.132;5.422;2024-01-06T08:41:38;101204.16;;;3.75;94.09
79617;BME280;69097;52.132;5.422;2024-01-06T08:44:05;101222.41;;;3.76;94.06
79617;BME280;69097;52.132;5.422;2024-01-06T08:46:31;101221.63;;;3.75;94.42
79617;BME280;69097;52.132;5.422;2024-01-06T08:48:58;101231.88;;;3.71;93.91
79617;BME280;69097;52.132;5.422;2024-01-06T08:51:24;101235.50;;;3.75;94.65
79617;BME280;69097;52.132;5.422;2024-01-06T08:53:52;101243.00;;;3.75;94.50
79617;BME280;69097;52.132;5.422;2024-01-06T08:56:20;101244.63;;;3.79;94.12
79617;BME280;69097;52.132;5.422;2024-01-06T08:58:46;101244.63;;;3.79;94.26
79617;BME280;69097;52.132;5.422;2024-01-06T09:01:13;101248.59;;;3.78;94.21
79617;BME280;69097;52.132;5.422;2024-01-06T09:03:44;101255.34;;;3.81;94.23
79617;BME280;69097;52.132;5.422;2024-01-06T09:06:11;101255.78;;;3.83;94.71
79617;BME280;69097;52.132;5.422;2024-01-06T09:08:37;101258.16;;;3.85;94.31
79617;BME280;69097;52.132;5.422;2024-01-06T09:11:04;101269.66;;;3.83;94.25
79617;BME280;69097;52.132;5.422;2024-01-06T09:13:31;101270.88;;;3.86;94.18
79617;BME280;69097;52.132;5.422;2024-01-06T09:15:59;101270.41;;;3.80;94.56
79617;BME280;69097;52.132;5.422;2024-01-06T09:18:28;101272.44;;;3.83;93.88
79617;BME280;69097;52.132;5.422;2024-01-06T09:20:55;101278.75;;;3.80;94.65
79617;BME280;69097;52.132;5.422;2024-01-06T09:23:22;101276.44;;;3.86;93.85
79617;BME280;69097;52.132;5.422;2024-01-06T09:25:50;101284.38;;;3.87;93.41
79617;BME280;69097;52.132;5.422;2024-01-06T09:28:18;101291.09;;;3.86;93.93
79617;BME280;69097;52.132;5.422;2024-01-06T09:30:45;101298.59;;;3.82;93.50
79617;BME280;69097;52.132;5.422;2024-01-06T09:33:12;101294.94;;;3.78;93.97
79617;BME280;69097;52.132;5.422;2024-01-06T09:35:42;101307.66;;;3.79;93.81
79617;BME280;69097;52.132;5.422;2024-01-06T09:38:10;101308.13;;;3.85;93.14
79617;BME280;69097;52.132;5.422;2024-01-06T09:40:41;101312.56;;;3.89;93.25
79617;BME280;69097;52.132;5.422;2024-01-06T09:43:08;101307.00;;;3.89;93.65
79617;BME280;69097;52.132;5.422;2024-01-06T09:45:35;101315.38;;;3.93;93.02
79617;BME280;69097;52.132;5.422;2024-01-06T09:48:12;101318.50;;;3.91;93.16
79617;BME280;69097;52.132;5.422;2024-01-06T09:50:42;101330.84;;;3.94;93.71
79617;BME280;69097;52.132;5.422;2024-01-06T09:53:10;101322.94;;;3.96;92.59
79617;BME280;69097;52.132;5.422;2024-01-06T09:55:37;101333.19;;;3.92;92.36
79617;BME280;69097;52.132;5.422;2024-01-06T09:58:05;101335.16;;;3.91;93.11
79617;BME280;69097;52.132;5.422;2024-01-06T10:00:33;101333.63;;;3.94;92.44
79617;BME280;69097;52.132;5.422;2024-01-06T10:03:00;101333.66;;;3.97;92.60
79617;BME280;69097;52.132;5.422;2024-01-06T10:05:27;101331.31;;;3.99;92.76
79617;BME280;69097;52.132;5.422;2024-01-06T10:07:53;101344.34;;;3.95;91.79
79617;BME280;69097;52.132;5.422;2024-01-06T10:10:22;101340.75;;;3.95;91.97
79617;BME280;69097;52.132;5.422;2024-01-06T10:12:52;101361.78;;;3.96;92.19
79617;BME280;69097;52.132;5.422;2024-01-06T10:15:19;101358.16;;;3.92;92.48
79617;BME280;69097;52.132;5.422;2024-01-06T10:17:46;101362.16;;;3.94;92.29
79617;BME280;69097;52.132;5.422;2024-01-06T10:20:13;101370.16;;;3.99;91.83
79617;BME280;69097;52.132;5.422;2024-01-06T10:22:41;101372.94;;;3.99;92.42
79617;BME280;69097;52.132;5.422;2024-01-06T10:25:09;101366.59;;;3.99;92.36
79617;BME280;69097;52.132;5.422;2024-01-06T10:27:40;101378.94;;;4.01;92.66
79617;BME280;69097;52.132;5.422;2024-01-06T10:30:08;101379.22;;;3.96;91.62
79617;BME280;69097;52.132;5.422;2024-01-06T10:32:36;101380.78;;;3.94;92.49
79617;BME280;69097;52.132;5.422;2024-01-06T10:35:04;101377.22;;;3.93;92.16
79617;BME280;69097;52.132;5.422;2024-01-06T10:37:33;101392.69;;;3.94;92.37
79617;BME280;69097;52.132;5.422;2024-01-06T10:40:07;101396.69;;;3.97;92.02
79617;BME280;69097;52.132;5.422;2024-01-06T10:42:40;101389.13;;;3.94;92.44
79617;BME280;69097;52.132;5.422;2024-01-06T10:45:13;101392.31;;;3.96;91.72
79617;BME280;69097;52.132;5.422;2024-01-06T10:47:43;101391.13;;;3.97;91.42
79617;BME280;69097;52.132;5.422;2024-01-06T10:50:12;101396.69;;;3.97;92.13
79617;BME280;69097;52.132;5.422;2024-01-06T10:52:43;101393.84;;;3.93;92.01
79617;BME280;69097;52.132;5.422;2024-01-06T10:55:11;101395.53;;;3.98;92.26
79617;BME280;69097;52.132;5.422;2024-01-06T10:57:38;101396.31;;;3.98;91.54
79617;BME280;69097;52.132;5.422;2024-01-06T11:00:09;101401.44;;;3.96;91.63
79617;BME280;69097;52.132;5.422;2024-01-06T11:02:37;101395.47;;;3.94;92.19
79617;BME280;69097;52.132;5.422;2024-01-06T11:05:08;101401.75;;;3.91;91.35
79617;BME280;69097;52.132;5.422;2024-01-06T11:07:38;101407.63;;;3.86;90.77
79617;BME280;69097;52.132;5.422;2024-01-06T11:10:30;101406.91;;;3.89;90.80
79617;BME280;69097;52.132;5.422;2024-01-06T11:13:10;101407.28;;;3.91;91.22
79617;BME280;69097;52.132;5.422;2024-01-06T11:15:50;101411.38;;;3.97;91.27
79617;BME280;69097;52.132;5.422;2024-01-06T11:18:34;101412.13;;;3.94;92.00
79617;BME280;69097;52.132;5.422;2024-01-06T11:23:39;101411.38;;;3.97;91.33
79617;BME280;69097;52.132;5.422;2024-01-06T11:26:07;101416.47;;;3.95;91.31
79617;BME280;69097;52.132;5.422;2024-01-06T11:28:47;101415.34;;;4.00;91.39
79617;BME280;69097;52.132;5.422;2024-01-06T11:31:18;101412.19;;;3.98;91.26
79617;BME280;69097;52.132;5.422;2024-01-06T11:33:45;101413.75;;;3.99;91.14
79617;BME280;69097;52.132;5.422;2024-01-06T11:36:15;101416.91;;;3.97;90.60
79617;BME280;69097;52.132;5.422;2024-01-06T11:38:42;101418.13;;;4.00;90.78
79617;BME280;69097;52.132;5.422;2024-01-06T11:41:48;101414.16;;;3.97;90.70
79617;BME280;69097;52.132;5.422;2024-01-06T11:44:20;101413.00;;;4.02;90.42
79617;BME280;69097;52.132;5.422;2024-01-06T11:46:47;101412.25;;;4.05;90.71
79617;BME280;69097;52.132;5.422;2024-01-06T11:49:16;101418.63;;;4.05;90.14
79617;BME280;69097;52.132;5.422;2024-01-06T11:51:43;101413.88;;;4.06;90.13
79617;BME280;69097;52.132;5.422;2024-01-06T11:54:09;101419.38;;;4.02;90.29
79617;BME280;69097;52.132;5.422;2024-01-06T11:56:36;101417.03;;;4.04;90.76
79617;BME280;69097;52.132;5.422;2024-01-06T11:59:03;101422.56;;;4.04;90.19
79617;BME280;69097;52.132;5.422;2024-01-06T12:01:37;101418.19;;;4.03;90.53
79617;BME280;69097;52.132;5.422;2024-01-06T12:04:04;101416.22;;;4.04;89.85
79617;BME280;69097;52.132;5.422;2024-01-06T12:06:32;101415.84;;;4.05;90.53
79617;BME280;69097;52.132;5.422;2024-01-06T12:09:06;101418.19;;;4.03;90.24
79617;BME280;69097;52.132;5.422;2024-01-06T12:11:33;101413.38;;;4.00;90.48
79617;BME280;69097;52.132;5.422;2024-01-06T12:13:59;101416.91;;;3.97;90.33
79617;BME280;69097;52.132;5.422;2024-01-06T12:16:26;101416.47;;;3.95;90.48
79617;BME280;69097;52.132;5.422;2024-01-06T12:18:56;101416.91;;;3.97;89.94
79617;BME280;69097;52.132;5.422;2024-01-06T12:21:27;101420.13;;;3.99;90.93
79617;BME280;69097;52.132;5.422;2024-01-06T12:23:53;101426.09;;;4.01;90.15
79617;BME280;69097;52.132;5.422;2024-01-06T12:26:20;101441.09;;;3.97;90.14
79617;BME280;69097;52.132;5.422;2024-01-06T12:28:47;101436.28;;;3.94;90.57
79617;BME280;69097;52.132;5.422;2024-01-06T12:31:14;101439.00;;;3.90;90.36
79617;BME280;69097;52.132;5.422;2024-01-06T12:33:42;101436.59;;;3.89;89.92
79617;BME280;69097;52.132;5.422;2024-01-06T12:36:08;101440.91;;;3.86;89.75
79617;BME280;69097;52.132;5.422;2024-01-06T12:38:51;101439.75;;;3.87;90.36
79617;BME280;69097;52.132;5.422;2024-01-06T12:41:18;101439.81;;;3.91;90.24
79617;BME280;69097;52.132;5.422;2024-01-06T12:43:44;101435.81;;;3.88;90.24
79617;BME280;69097;52.132;5.422;2024-01-06T12:46:11;101433.03;;;3.88;90.58
79617;BME280;69097;52.132;5.422;2024-01-06T12:48:37;101440.59;;;3.91;90.20
79617;BME280;69097;52.132;5.422;2024-01-06T12:51:04;101444.56;;;3.90;89.93
79617;BME280;69097;52.132;5.422;2024-01-06T12:53:31;101437.78;;;3.88;89.94
79617;BME280;69097;52.132;5.422;2024-01-06T12:55:58;101437.41;;;3.89;90.76
79617;BME280;69097;52.132;5.422;2024-01-06T12:58:24;101438.91;;;3.83;89.88
79617;BME280;69097;52.132;5.422;2024-01-06T13:00:51;101441.66;;;3.83;90.91
79617;BME280;69097;52.132;5.422;2024-01-06T13:03:17;101448.41;;;3.82;90.85